Time;durP1;ratioP1;P1;durP2;ratioP2;P2;SDS_P1;SDS_P2;PMS_P1;PMS_P2;Temp;Humidity;BMP_temperature;BMP_pressure;BME280_temperature;BME280_humidity;BME280_pressure;Samples;Min_cycle;Max_cycle;Signal;HPM_P1;HPM_P2
2022/01/02 00:01:14;;;;;;;2.08;1.98;;;14.00;90.20;;;;;;10456447;28;20506;-73
2022/01/02 00:06:15;;;;;;;2.40;2.20;;;14.00;90.20;;;;;;10456978;28;20065;-73
2022/01/02 00:11:17;;;;;;;2.58;2.28;;;14.00;90.10;;;;;;10455820;28;20056;-73
2022/01/02 00:16:18;;;;;;;1.90;1.80;;;14.00;90.20;;;;;;10456090;28;20099;-73
2022/01/02 00:21:21;;;;;;;2.17;1.98;;;14.00;90.10;;;;;;10455485;28;20041;-74
2022/01/02 00:26:22;;;;;;;2.00;1.90;;;14.00;90.10;;;;;;10455864;28;20055;-73
2022/01/02 00:31:24;;;;;;;1.88;1.70;;;14.00;90.20;;;;;;10455142;28;20068;-74
2022/01/02 00:36:25;;;;;;;1.77;1.67;;;14.00;90.20;;;;;;10455276;28;20037;-73
2022/01/02 00:41:27;;;;;;;1.98;1.77;;;14.00;90.20;;;;;;10455311;28;20041;-73
2022/01/02 00:46:28;;;;;;;2.25;2.00;;;14.00;90.20;;;;;;10454589;28;20048;-73
2022/01/02 00:51:30;;;;;;;2.10;1.90;;;14.00;90.20;;;;;;10454723;28;20052;-73
2022/01/02 00:56:31;;;;;;;2.20;2.00;;;14.00;90.20;;;;;;10454630;28;20041;-74
2022/01/02 01:01:33;;;;;;;1.65;1.55;;;14.00;90.20;;;;;;10454584;28;20049;-73
2022/01/02 01:06:34;;;;;;;1.83;1.60;;;14.00;90.20;;;;;;10454452;28;20051;-73
2022/01/02 01:11:36;;;;;;;2.00;1.80;;;14.00;90.20;;;;;;10453994;28;20055;-73
2022/01/02 01:16:37;;;;;;;2.22;1.88;;;14.00;90.20;;;;;;10453833;28;20052;-73
2022/01/02 01:21:39;;;;;;;1.85;1.75;;;14.00;90.20;;;;;;10453915;28;20048;-73
2022/01/02 01:26:40;;;;;;;2.10;1.90;;;14.00;90.20;;;;;;10455930;28;20494;-73
2022/01/02 01:31:42;;;;;;;2.03;1.80;;;14.00;90.20;;;;;;10467245;28;20053;-72
2022/01/02 01:36:43;;;;;;;2.50;2.08;;;14.00;90.20;;;;;;10467273;28;20520;-73
2022/01/02 01:41:46;;;;;;;1.80;1.70;;;14.00;90.20;;;;;;10467232;28;20413;-73
2022/01/02 01:46:51;;;;;;;1.83;1.50;;;14.00;90.20;;;;;;10466692;28;20399;-73
2022/01/02 01:51:52;;;;;;;1.83;1.63;;;14.00;90.20;;;;;;10466973;28;20449;-73
2022/01/02 01:56:54;;;;;;;2.15;1.90;;;14.00;90.50;;;;;;10466965;28;20410;-74
2022/01/02 02:01:55;;;;;;;2.28;1.70;;;13.90;90.20;;;;;;10466605;28;20060;-73
2022/01/02 02:06:59;;;;;;;1.88;1.67;;;14.00;90.20;;;;;;10466995;28;20049;-74
2022/01/02 02:12:00;;;;;;;1.77;1.52;;;13.90;90.20;;;;;;10466571;28;20045;-74
2022/01/02 02:17:02;;;;;;;1.52;1.42;;;13.90;90.20;;;;;;10466691;28;20049;-73
2022/01/02 02:22:03;;;;;;;1.80;1.70;;;13.90;90.20;;;;;;10466489;28;20060;-74
2022/01/02 02:27:05;;;;;;;1.98;1.70;;;13.90;90.20;;;;;;10459871;28;20045;-74
2022/01/02 02:32:06;;;;;;;1.90;1.70;;;13.90;90.20;;;;;;10424943;28;20048;-73
2022/01/02 02:37:08;;;;;;;2.22;1.60;;;13.90;90.20;;;;;;10424883;28;20122;-74
2022/01/02 02:42:22;;;;;;;2.00;1.52;;;13.90;90.20;;;;;;10417516;28;20123;-74
2022/01/02 02:52:46;;;;;;;1.90;1.70;;;13.90;90.60;;;;;;10418033;28;20041;-74
2022/01/02 02:57:55;;;;;;;2.20;1.70;;;13.90;90.60;;;;;;10417706;28;20050;-74
2022/01/02 03:02:57;;;;;;;1.73;1.60;;;14.00;90.50;;;;;;10417528;28;20260;-74
2022/01/02 03:07:58;;;;;;;1.80;1.60;;;14.00;90.50;;;;;;10417476;28;20491;-73
2022/01/02 03:13:00;;;;;;;1.70;1.50;;;14.00;90.70;;;;;;10417154;28;20519;-74
2022/01/02 03:18:01;;;;;;;1.67;1.50;;;14.00;90.70;;;;;;10417131;28;20048;-74
2022/01/02 03:23:03;;;;;;;2.20;1.77;;;14.10;90.60;;;;;;10416839;28;20048;-74
2022/01/02 03:28:04;;;;;;;1.40;1.30;;;14.10;90.60;;;;;;10416620;28;20498;-74
2022/01/02 03:33:06;;;;;;;1.42;1.33;;;14.10;90.60;;;;;;10416300;28;20091;-74
2022/01/02 03:38:07;;;;;;;1.85;1.50;;;14.00;90.60;;;;;;10416916;28;20049;-74
2022/01/02 03:43:09;;;;;;;1.85;1.73;;;14.10;90.80;;;;;;10416731;28;20104;-73
2022/01/02 03:48:10;;;;;;;1.35;1.25;;;14.10;90.80;;;;;;10415617;28;20049;-72
2022/01/02 03:53:11;;;;;;;2.03;1.38;;;14.10;90.70;;;;;;10415408;28;20053;-73
2022/01/02 03:58:13;;;;;;;1.70;1.58;;;14.10;90.60;;;;;;10415355;28;20103;-73
2022/01/02 04:03:15;;;;;;;1.90;1.60;;;14.10;90.60;;;;;;10415161;28;20467;-73
2022/01/02 04:08:16;;;;;;;1.75;1.20;;;14.10;90.70;;;;;;10415228;28;20046;-73
2022/01/02 04:13:18;;;;;;;2.40;1.50;;;14.10;90.80;;;;;;10414879;28;20072;-73
2022/01/02 04:18:19;;;;;;;2.10;1.50;;;14.10;90.80;;;;;;10414636;28;20049;-73
2022/01/02 04:23:21;;;;;;;1.77;1.30;;;14.10;90.70;;;;;;10414397;28;20068;-73
2022/01/02 04:28:22;;;;;;;2.30;1.60;;;14.10;90.70;;;;;;10455019;28;20048;-73
2022/01/02 04:33:24;;;;;;;1.45;1.35;;;14.10;90.70;;;;;;10455179;28;20049;-73
2022/01/02 04:38:25;;;;;;;2.40;1.65;;;14.10;90.70;;;;;;10455081;28;20049;-72
2022/01/02 04:43:27;;;;;;;1.70;1.60;;;14.10;90.90;;;;;;10454935;28;20064;-72
2022/01/02 04:48:28;;;;;;;1.52;1.30;;;14.10;90.90;;;;;;10454500;28;20395;-73
2022/01/02 04:53:30;;;;;;;1.60;1.10;;;14.10;90.80;;;;;;10454619;28;20072;-73
2022/01/02 04:58:32;;;;;;;2.13;1.48;;;14.10;90.70;;;;;;10454606;28;20052;-72
2022/01/02 05:03:33;;;;;;;1.85;1.30;;;14.10;90.70;;;;;;10453834;28;20144;-73
2022/01/02 05:08:34;;;;;;;2.03;1.27;;;14.10;90.70;;;;;;10454395;28;20053;-72
2022/01/02 05:13:36;;;;;;;1.98;1.40;;;14.10;90.70;;;;;;10454013;28;20049;-72
2022/01/02 05:18:37;;;;;;;2.03;1.55;;;14.10;90.90;;;;;;10453913;28;20052;-72
2022/01/02 05:23:39;;;;;;;2.53;1.42;;;14.10;90.90;;;;;;10453658;28;20103;-73
2022/01/02 05:28:40;;;;;;;1.65;1.40;;;14.10;90.90;;;;;;10453964;28;20044;-73
2022/01/02 05:33:42;;;;;;;1.50;1.40;;;14.10;90.80;;;;;;10453591;28;20060;-73
2022/01/02 05:38:43;;;;;;;1.73;1.30;;;14.10;90.80;;;;;;10453559;28;20041;-73
2022/01/02 05:43:45;;;;;;;2.10;1.35;;;14.10;90.80;;;;;;10453653;28;20053;-74
2022/01/02 05:48:46;;;;;;;2.20;1.50;;;14.10;90.80;;;;;;10452994;28;20107;-73
2022/01/02 05:53:48;;;;;;;2.50;1.50;;;14.10;91.00;;;;;;10453456;28;20315;-73
2022/01/02 05:58:49;;;;;;;1.98;1.42;;;14.10;90.90;;;;;;10453454;28;20048;-73
2022/01/02 06:03:51;;;;;;;1.90;1.40;;;14.10;90.90;;;;;;10453217;28;20053;-73
2022/01/02 06:08:52;;;;;;;1.85;1.25;;;14.10;90.90;;;;;;10453117;28;20056;-73
2022/01/02 06:13:54;;;;;;;1.48;1.38;;;14.10;90.90;;;;;;10455257;28;20053;-73
2022/01/02 06:18:57;;;;;;;1.90;1.38;;;14.10;90.80;;;;;;10460650;28;20051;-73
2022/01/02 06:23:59;;;;;;;1.90;1.45;;;14.10;90.80;;;;;;10432791;28;20085;-73
2022/01/02 06:29:03;;;;;;;2.28;1.50;;;14.10;91.00;;;;;;10419093;28;20104;-73
2022/01/02 06:34:04;;;;;;;1.88;1.27;;;14.10;91.00;;;;;;10418713;28;20050;-73
2022/01/02 06:39:05;;;;;;;2.05;1.48;;;14.10;91.00;;;;;;10418825;28;20107;-73
2022/01/02 06:44:07;;;;;;;2.63;1.85;;;14.10;90.90;;;;;;10418650;28;20045;-73
2022/01/02 06:49:08;;;;;;;1.42;1.10;;;14.10;90.90;;;;;;10418569;28;20045;-73
2022/01/02 06:54:10;;;;;;;2.25;1.65;;;14.10;90.80;;;;;;10417997;28;20057;-73
2022/01/02 06:59:11;;;;;;;2.25;1.40;;;14.10;90.80;;;;;;10418103;28;20053;-74
2022/01/02 07:04:13;;;;;;;1.38;1.10;;;14.10;91.10;;;;;;10417726;28;20072;-74
2022/01/02 07:09:14;;;;;;;1.50;1.30;;;14.10;91.00;;;;;;10417722;28;20053;-74
2022/01/02 07:14:16;;;;;;;2.63;1.35;;;14.10;91.00;;;;;;10417201;28;20049;-73
2022/01/02 07:19:17;;;;;;;1.58;1.20;;;14.10;90.90;;;;;;10417414;28;20049;-74
2022/01/02 07:24:19;;;;;;;1.50;1.40;;;14.10;91.00;;;;;;10457264;28;20049;-73
2022/01/02 07:29:20;;;;;;;1.98;1.17;;;14.10;90.90;;;;;;10457901;28;20048;-73
2022/01/02 07:34:22;;;;;;;2.42;1.40;;;14.10;90.90;;;;;;10457770;28;20081;-73
2022/01/02 07:39:23;;;;;;;2.10;1.10;;;14.10;91.10;;;;;;10457332;28;20049;-74
2022/01/02 07:44:25;;;;;;;1.80;1.10;;;14.10;91.10;;;;;;10457464;28;20045;-73
2022/01/02 07:49:26;;;;;;;1.55;1.17;;;14.10;91.10;;;;;;10456918;28;20045;-74
2022/01/02 07:54:27;;;;;;;1.90;1.33;;;14.10;91.00;;;;;;10457349;28;20053;-73
2022/01/02 07:59:29;;;;;;;2.67;1.40;;;14.10;90.90;;;;;;10457056;28;20049;-74
2022/01/02 08:04:30;;;;;;;2.00;1.50;;;14.10;90.90;;;;;;10456462;28;20053;-73
2022/01/02 08:09:32;;;;;;;1.75;1.20;;;14.10;90.90;;;;;;10456440;28;20481;-73
2022/01/02 08:14:33;;;;;;;2.28;1.42;;;14.10;91.00;;;;;;10456040;28;20486;-74
2022/01/02 08:19:35;;;;;;;3.20;1.42;;;14.10;91.20;;;;;;10441572;28;20045;-73
2022/01/02 08:24:36;;;;;;;3.33;1.40;;;14.10;91.10;;;;;;10414536;28;20050;-74
2022/01/02 08:29:38;;;;;;;2.33;1.35;;;14.10;91.10;;;;;;10414624;28;20096;-74
2022/01/02 08:34:39;;;;;;;2.50;1.20;;;14.10;91.00;;;;;;10414279;28;20045;-74
2022/01/02 08:39:41;;;;;;;1.95;1.40;;;14.10;91.00;;;;;;10413008;28;20041;-74
2022/01/02 08:44:43;;;;;;;2.60;1.20;;;14.10;91.00;;;;;;10413919;28;20061;-73
2022/01/02 08:49:45;;;;;;;3.08;1.48;;;14.10;91.00;;;;;;10413149;28;20053;-74
2022/01/02 08:54:46;;;;;;;2.17;1.10;;;14.10;91.20;;;;;;10413633;28;20057;-73
2022/01/02 08:59:48;;;;;;;1.98;1.08;;;14.10;91.30;;;;;;10413340;28;20053;-74
2022/01/02 09:04:49;;;;;;;2.53;1.23;;;14.10;91.20;;;;;;10413079;28;20061;-74
2022/01/02 09:09:51;;;;;;;1.55;1.27;;;14.10;91.10;;;;;;10413542;28;20045;-73
2022/01/02 09:14:52;;;;;;;2.53;1.20;;;14.10;91.10;;;;;;10412903;28;20056;-74
2022/01/02 09:19:56;;;;;;;1.90;1.23;;;14.10;91.10;;;;;;10441064;28;20049;-73
2022/01/02 09:24:58;;;;;;;1.85;1.10;;;14.10;91.10;;;;;;10453909;28;20103;-73
2022/01/02 09:30:01;;;;;;;2.67;1.50;;;14.10;91.10;;;;;;10454181;28;20534;-74
2022/01/02 09:35:03;;;;;;;2.28;1.40;;;14.10;91.30;;;;;;10453750;28;20477;-73
2022/01/02 09:40:04;;;;;;;2.70;1.40;;;14.10;91.30;;;;;;10453976;28;20045;-74
2022/01/02 09:45:06;;;;;;;1.95;1.10;;;14.10;91.30;;;;;;10453624;28;20453;-73
2022/01/02 09:50:07;;;;;;;1.83;1.13;;;14.10;91.20;;;;;;10457875;28;20615;-74
2022/01/02 09:55:10;;;;;;;1.85;1.23;;;14.10;91.20;;;;;;10461964;28;20041;-73
2022/01/02 10:00:12;;;;;;;1.65;1.20;;;14.10;91.20;;;;;;10461252;28;20056;-73
2022/01/02 10:05:13;;;;;;;2.53;1.20;;;14.10;91.10;;;;;;10461138;28;20057;-73
2022/01/02 10:10:15;;;;;;;2.25;1.23;;;14.10;91.10;;;;;;10461125;28;20049;-73
2022/01/02 10:15:16;;;;;;;2.90;1.45;;;14.10;91.30;;;;;;10460629;28;20056;-73
2022/01/02 10:20:18;;;;;;;2.42;1.25;;;14.10;91.40;;;;;;10460283;28;20120;-74
2022/01/02 10:25:19;;;;;;;2.53;1.50;;;14.10;91.30;;;;;;10460493;28;20052;-73
2022/01/02 10:30:21;;;;;;;2.20;1.30;;;14.20;91.30;;;;;;10460325;28;20064;-74
2022/01/02 10:35:22;;;;;;;1.85;1.40;;;14.10;91.20;;;;;;10460055;28;20045;-73
2022/01/02 10:40:24;;;;;;;2.53;1.20;;;14.10;91.20;;;;;;10459765;28;20056;-73
2022/01/02 10:45:25;;;;;;;1.77;1.23;;;14.10;91.20;;;;;;10459677;28;20048;-74
2022/01/02 10:50:27;;;;;;;2.17;1.20;;;14.10;91.20;;;;;;10459183;28;20048;-73
2022/01/02 10:55:30;;;;;;;2.72;1.50;;;14.10;91.40;;;;;;10459561;28;20486;-73
2022/01/02 11:00:31;;;;;;;2.35;1.45;;;14.10;91.50;;;;;;10458291;28;20049;-74
2022/01/02 11:05:33;;;;;;;3.00;1.38;;;14.10;91.40;;;;;;10458557;28;20059;-73
2022/01/02 11:10:35;;;;;;;3.17;1.73;;;14.20;91.40;;;;;;10458721;28;20049;-73
2022/01/02 11:15:37;;;;;;;2.72;1.67;;;14.20;91.30;;;;;;10458155;28;20045;-73
2022/01/02 11:20:39;;;;;;;2.20;1.35;;;14.10;91.30;;;;;;10458585;28;20049;-74
2022/01/02 11:25:41;;;;;;;1.75;1.20;;;14.10;91.30;;;;;;10458135;28;20123;-74
2022/01/02 11:30:42;;;;;;;1.98;1.55;;;14.10;91.30;;;;;;10457671;28;20156;-74
2022/01/02 11:35:44;;;;;;;3.33;1.80;;;14.10;91.30;;;;;;10457853;28;20383;-73
2022/01/02 11:40:45;;;;;;;1.83;1.38;;;14.10;91.60;;;;;;10457541;28;20489;-73
2022/01/02 11:45:47;;;;;;;2.72;1.35;;;14.10;91.60;;;;;;10457598;28;20056;-73
2022/01/02 11:50:49;;;;;;;1.55;1.30;;;14.20;91.60;;;;;;10456942;28;20060;-73
2022/01/02 11:55:50;;;;;;;2.30;1.60;;;14.20;91.50;;;;;;10456912;28;20152;-73
2022/01/02 12:00:52;;;;;;;2.00;1.52;;;14.20;91.40;;;;;;10457076;28;20045;-74
2022/01/02 12:05:53;;;;;;;2.20;1.30;;;14.10;91.40;;;;;;10456211;28;20057;-74
2022/01/02 12:10:55;;;;;;;2.78;1.50;;;14.10;91.40;;;;;;10456155;28;20056;-73
2022/01/02 12:16:00;;;;;;;3.58;1.55;;;14.10;91.40;;;;;;10425346;28;20045;-73
2022/01/02 12:21:01;;;;;;;1.85;1.30;;;14.10;91.40;;;;;;10414769;28;20228;-72
2022/01/02 12:26:03;;;;;;;2.65;1.50;;;14.10;91.50;;;;;;10414645;28;20128;-74
2022/01/02 12:31:04;;;;;;;2.20;1.35;;;14.10;91.70;;;;;;10414364;28;20511;-74
2022/01/02 12:36:06;;;;;;;2.30;1.48;;;14.20;91.70;;;;;;10414247;28;20049;-73
2022/01/02 12:41:07;;;;;;;2.65;1.58;;;14.20;91.60;;;;;;10413909;28;20498;-74
2022/01/02 12:46:09;;;;;;;2.97;1.60;;;14.10;91.60;;;;;;10414020;28;20482;-73
2022/01/02 12:51:10;;;;;;;2.70;1.52;;;14.20;91.50;;;;;;10413260;28;20498;-73
2022/01/02 12:56:12;;;;;;;3.03;1.77;;;14.10;91.50;;;;;;10413377;28;20049;-73
2022/01/02 13:01:13;;;;;;;3.10;1.70;;;14.10;91.50;;;;;;10413124;28;20046;-74
2022/01/02 13:06:14;;;;;;;3.60;1.70;;;14.10;91.50;;;;;;10412975;28;20545;-74
2022/01/02 13:11:16;;;;;;;3.05;1.80;;;14.10;91.60;;;;;;10416450;28;20071;-74
2022/01/02 13:16:18;;;;;;;2.72;1.98;;;14.10;91.90;;;;;;10454054;28;20481;-74
2022/01/02 13:21:19;;;;;;;2.25;1.30;;;14.10;91.90;;;;;;10454020;28;20045;-74
2022/01/02 13:26:21;;;;;;;3.17;1.70;;;14.20;92.00;;;;;;10453318;28;20045;-74
2022/01/02 13:31:22;;;;;;;3.15;1.80;;;14.20;92.00;;;;;;10453503;28;20060;-74
2022/01/02 13:36:26;;;;;;;3.50;1.67;;;14.20;91.90;;;;;;10453527;28;20045;-73
2022/01/02 13:41:27;;;;;;;3.10;1.77;;;14.20;91.80;;;;;;10453597;28;20401;-74
2022/01/02 13:46:29;;;;;;;2.33;1.42;;;14.10;91.80;;;;;;10453281;28;20053;-74
2022/01/02 13:51:32;;;;;;;3.33;2.00;;;14.10;91.80;;;;;;10453704;28;20049;-74
2022/01/02 13:56:33;;;;;;;3.42;1.60;;;14.20;91.80;;;;;;10453182;28;20044;-74
2022/01/02 14:01:35;;;;;;;3.20;1.63;;;14.10;91.80;;;;;;10453060;28;20045;-74
2022/01/02 14:06:37;;;;;;;4.40;1.75;;;14.10;91.90;;;;;;10452925;28;20056;-74
2022/01/02 14:11:41;;;;;;;4.20;1.67;;;14.10;92.00;;;;;;10452794;28;20048;-73
2022/01/02 14:16:56;;;;;;;3.72;1.60;;;14.10;92.20;;;;;;10452640;28;20128;-74
2022/01/02 14:21:57;;;;;;;3.30;1.58;;;14.10;92.20;;;;;;10453222;28;20048;-75
2022/01/02 14:26:59;;;;;;;3.40;1.73;;;14.20;92.10;;;;;;10452588;28;20091;-75
2022/01/02 14:32:00;;;;;;;3.78;1.60;;;14.20;92.10;;;;;;10452376;28;20049;-74
2022/01/02 14:37:02;;;;;;;3.30;1.60;;;14.10;92.00;;;;;;10458143;28;20052;-74
2022/01/02 14:42:03;;;;;;;3.88;1.90;;;14.10;92.00;;;;;;10459581;28;20052;-73
2022/01/02 14:47:05;;;;;;;3.38;1.83;;;14.10;91.90;;;;;;10459725;28;20053;-74
2022/01/02 14:52:06;;;;;;;3.70;1.70;;;14.10;92.00;;;;;;10459391;28;20052;-74
2022/01/02 14:57:08;;;;;;;4.30;1.85;;;14.10;92.00;;;;;;10459557;28;20049;-74
2022/01/02 15:02:09;;;;;;;3.22;1.33;;;14.10;92.20;;;;;;10458912;28;20488;-75
2022/01/02 15:07:11;;;;;;;3.20;1.42;;;14.10;92.20;;;;;;10458771;28;20505;-74
2022/01/02 15:12:12;;;;;;;2.90;1.50;;;14.10;92.10;;;;;;10458528;28;20406;-74
2022/01/02 15:17:14;;;;;;;3.42;1.33;;;14.10;92.10;;;;;;10458178;28;20049;-74
2022/01/02 15:22:15;;;;;;;4.45;1.75;;;14.10;92.00;;;;;;10459011;28;20045;-74
2022/01/02 15:27:17;;;;;;;3.83;1.48;;;14.10;92.00;;;;;;10458193;28;20052;-74
2022/01/02 15:32:18;;;;;;;2.72;1.30;;;14.10;92.00;;;;;;10457872;28;20053;-74
2022/01/02 15:37:20;;;;;;;3.05;1.38;;;14.10;92.00;;;;;;10457977;28;20094;-74
2022/01/02 15:42:21;;;;;;;2.97;1.42;;;14.00;92.20;;;;;;10457492;28;20049;-73
2022/01/02 15:47:23;;;;;;;2.95;1.20;;;14.10;92.20;;;;;;10456047;28;20037;-75
2022/01/02 15:52:24;;;;;;;2.88;1.23;;;14.10;92.10;;;;;;10456933;28;20516;-74
2022/01/02 15:57:26;;;;;;;4.13;1.50;;;14.10;92.10;;;;;;10457113;28;20509;-74
2022/01/02 16:02:27;;;;;;;3.45;1.20;;;14.10;92.10;;;;;;10456932;28;20513;-74
2022/01/02 16:07:29;;;;;;;2.50;1.33;;;14.10;92.10;;;;;;10449278;28;20045;-74
2022/01/02 16:12:30;;;;;;;2.78;1.30;;;14.10;92.10;;;;;;10415099;28;20064;-74
2022/01/02 16:17:32;;;;;;;3.47;1.20;;;14.00;92.30;;;;;;10414598;28;20064;-74
2022/01/02 16:22:33;;;;;;;3.50;1.33;;;14.10;92.30;;;;;;10414771;28;20491;-74
2022/01/02 16:27:35;;;;;;;3.00;1.30;;;14.10;92.20;;;;;;10414312;28;20431;-74
2022/01/02 16:32:36;;;;;;;3.35;1.45;;;14.10;92.10;;;;;;10414140;28;20088;-74
2022/01/02 16:37:39;;;;;;;3.45;1.40;;;14.10;92.20;;;;;;10414388;28;20057;-74
2022/01/02 16:42:40;;;;;;;3.15;1.30;;;14.00;92.10;;;;;;10413853;28;20073;-74
2022/01/02 16:47:42;;;;;;;3.40;1.08;;;14.00;92.10;;;;;;10413586;28;20048;-73
2022/01/02 16:52:43;;;;;;;3.42;1.20;;;14.00;92.20;;;;;;10413533;28;20052;-74
2022/01/02 16:57:45;;;;;;;2.45;1.20;;;14.10;92.20;;;;;;10412586;28;20045;-74
2022/01/02 17:02:49;;;;;;;3.03;1.17;;;14.00;92.10;;;;;;10413147;28;20050;-74
2022/01/02 17:07:50;;;;;;;2.85;1.15;;;14.10;92.10;;;;;;10434498;28;20099;-73
2022/01/02 17:12:52;;;;;;;2.55;1.20;;;14.10;92.10;;;;;;10454232;28;20048;-73
2022/01/02 17:17:53;;;;;;;2.75;1.15;;;14.00;92.00;;;;;;10453737;28;20052;-73
2022/01/02 17:22:55;;;;;;;3.85;1.13;;;14.00;92.00;;;;;;10454096;28;20052;-73
2022/01/02 17:27:56;;;;;;;3.88;1.38;;;14.00;92.20;;;;;;10454666;28;20120;-74
2022/01/02 17:32:58;;;;;;;2.63;1.15;;;14.10;92.20;;;;;;10453845;28;20049;-74
2022/01/02 17:37:59;;;;;;;2.80;1.02;;;14.10;92.10;;;;;;10453628;28;20052;-74
2022/01/02 17:43:01;;;;;;;3.45;1.30;;;14.10;92.00;;;;;;10454100;28;20045;-74
2022/01/02 17:48:02;;;;;;;3.78;1.17;;;14.00;92.00;;;;;;10453482;28;20045;-74
2022/01/02 17:53:04;;;;;;;4.10;1.10;;;14.00;92.00;;;;;;10453388;28;20049;-74
2022/01/02 17:58:05;;;;;;;2.75;0.98;;;14.00;92.20;;;;;;10452994;28;20406;-73
2022/01/02 18:03:07;;;;;;;3.75;1.10;;;14.00;92.10;;;;;;10452853;28;20092;-74
2022/01/02 18:08:08;;;;;;;2.38;1.00;;;14.00;92.00;;;;;;10452694;28;20053;-74
2022/01/02 18:13:11;;;;;;;2.53;1.10;;;14.10;92.00;;;;;;10460887;28;20059;-74
2022/01/02 18:18:12;;;;;;;2.08;1.00;;;14.00;91.90;;;;;;10460613;28;20052;-74
2022/01/02 18:23:14;;;;;;;2.38;0.90;;;14.00;91.90;;;;;;10460701;28;20123;-74
2022/01/02 18:28:15;;;;;;;2.33;0.90;;;14.00;92.00;;;;;;10460404;28;20045;-74
2022/01/02 18:33:17;;;;;;;1.95;0.90;;;14.00;92.00;;;;;;10460021;28;20049;-74
2022/01/02 18:38:18;;;;;;;2.35;0.88;;;14.00;92.00;;;;;;10460141;28;20099;-74
2022/01/02 18:43:20;;;;;;;2.88;1.10;;;14.00;91.90;;;;;;10459675;28;20045;-74
2022/01/02 18:48:21;;;;;;;2.60;0.88;;;14.00;91.90;;;;;;10459574;28;20107;-74
2022/01/02 18:53:23;;;;;;;1.98;0.85;;;14.00;91.90;;;;;;10459678;28;20056;-74
2022/01/02 18:58:25;;;;;;;2.72;1.10;;;14.00;92.00;;;;;;10459600;28;20488;-74
2022/01/02 19:03:26;;;;;;;2.30;1.02;;;14.00;92.30;;;;;;10449893;28;20091;-74
2022/01/02 19:08:28;;;;;;;2.58;1.10;;;14.00;91.90;;;;;;10417996;28;20058;-74
2022/01/02 19:13:29;;;;;;;2.40;1.20;;;14.00;91.90;;;;;;10417411;28;20068;-74
2022/01/02 19:18:31;;;;;;;2.65;0.82;;;14.00;91.80;;;;;;10416914;28;20068;-74
2022/01/02 19:23:32;;;;;;;2.60;1.00;;;14.00;91.90;;;;;;10415920;28;20490;-74
2022/01/02 19:28:33;;;;;;;2.13;1.10;;;13.90;92.00;;;;;;10416825;28;20392;-74
2022/01/02 19:33:35;;;;;;;2.38;0.93;;;14.00;91.90;;;;;;10416447;28;20076;-74
2022/01/02 19:38:36;;;;;;;2.60;1.02;;;14.00;91.80;;;;;;10416510;28;20414;-75
2022/01/02 19:43:38;;;;;;;1.73;0.93;;;14.00;91.80;;;;;;10416303;28;20046;-74
2022/01/02 19:48:39;;;;;;;2.20;0.77;;;14.00;91.80;;;;;;10415922;28;20056;-74
2022/01/02 19:53:41;;;;;;;1.73;0.70;;;14.00;92.10;;;;;;10416430;28;20050;-74
2022/01/02 19:58:42;;;;;;;1.75;0.90;;;14.00;91.90;;;;;;10415779;28;20060;-73
2022/01/02 20:03:44;;;;;;;2.10;0.73;;;14.00;91.80;;;;;;10438133;28;20055;-74
2022/01/02 20:08:45;;;;;;;2.47;1.00;;;14.00;91.80;;;;;;10457115;28;20044;-73
2022/01/02 20:13:47;;;;;;;3.45;0.90;;;14.00;91.70;;;;;;10456767;28;20060;-74
2022/01/02 20:18:49;;;;;;;2.55;0.95;;;13.90;91.70;;;;;;10454199;28;20403;-72
2022/01/02 20:23:51;;;;;;;2.60;0.85;;;13.90;91.80;;;;;;10434824;28;20533;-71
2022/01/02 20:28:52;;;;;;;1.52;0.90;;;14.10;92.00;;;;;;10422169;28;20720;-74
2022/01/02 20:33:54;;;;;;;2.08;0.70;;;14.50;91.70;;;;;;10438863;28;20056;-73
2022/01/02 20:38:55;;;;;;;1.98;0.88;;;15.10;91.30;;;;;;10434870;28;20053;-76
2022/01/02 20:43:57;;;;;;;1.67;0.60;;;15.90;90.70;;;;;;10428588;28;20045;-73
2022/01/02 20:48:58;;;;;;;1.88;0.82;;;16.60;90.20;;;;;;10442348;28;20737;-77
2022/01/02 20:54:00;;;;;;;1.25;0.75;;;17.20;89.40;;;;;;10444960;28;20048;-74
2022/01/02 20:59:02;;;;;;;1.38;0.60;;;17.70;88.40;;;;;;10439905;28;20049;-72
2022/01/02 21:04:03;;;;;;;2.03;0.70;;;18.20;87.60;;;;;;10439060;28;20053;-76
2022/01/02 21:09:05;;;;;;;1.42;0.55;;;18.60;86.90;;;;;;10445876;28;20052;-76
2022/01/02 21:14:06;;;;;;;0.95;0.60;;;19.00;86.30;;;;;;10446111;28;20048;-75
2022/01/02 21:19:07;;;;;;;2.00;0.65;;;19.30;85.80;;;;;;10445811;28;20049;-75
2022/01/02 21:24:09;;;;;;;1.35;0.50;;;19.70;85.30;;;;;;10441112;28;20433;-75
2022/01/02 21:29:11;;;;;;;1.85;0.43;;;19.90;84.80;;;;;;10446418;28;20061;-76
2022/01/02 21:34:12;;;;;;;1.88;0.47;;;20.20;84.40;;;;;;10446510;28;20055;-76
2022/01/02 21:39:14;;;;;;;1.05;0.50;;;20.40;84.10;;;;;;10446882;28;20064;-77
2022/01/02 21:44:15;;;;;;;2.75;0.98;;;20.50;83.90;;;;;;10447472;28;20037;-76
2022/01/02 21:49:18;;;;;;;1.80;0.82;;;20.50;83.70;;;;;;10455087;28;20049;-76
2022/01/02 21:54:20;;;;;;;1.10;0.50;;;20.60;83.70;;;;;;10448976;28;20076;-76
2022/01/02 21:59:21;;;;;;;1.02;0.50;;;20.60;83.60;;;;;;10450659;28;20502;-76
2022/01/02 22:04:23;;;;;;;2.53;0.60;;;20.60;83.60;;;;;;10452698;28;20425;-76
2022/01/02 22:09:24;;;;;;;1.02;0.52;;;20.60;83.40;;;;;;10457042;28;20041;-76
2022/01/02 22:14:26;;;;;;;2.45;0.60;;;20.60;83.70;;;;;;10421043;28;20060;-74
2022/01/02 22:19:27;;;;;;;1.20;0.40;;;20.50;84.00;;;;;;10450322;28;20041;-74
2022/01/02 22:24:29;;;;;;;1.15;0.50;;;20.40;84.00;;;;;;10444563;28;20045;-73
2022/01/02 22:29:30;;;;;;;1.27;0.40;;;20.50;84.00;;;;;;10435802;28;20540;-74
2022/01/02 22:34:32;;;;;;;1.20;0.52;;;20.50;84.00;;;;;;10452987;28;20052;-75
2022/01/02 22:39:33;;;;;;;0.73;0.30;;;20.60;83.90;;;;;;10457793;28;20493;-68
2022/01/02 22:44:35;;;;;;;0.63;0.30;;;20.50;83.90;;;;;;10458542;28;20037;-75
2022/01/02 22:49:36;;;;;;;1.05;0.38;;;20.30;84.10;;;;;;10458384;28;20452;-74
2022/01/02 22:54:38;;;;;;;1.05;0.40;;;20.00;84.60;;;;;;10456642;28;20049;-74
2022/01/02 22:59:39;;;;;;;1.05;0.38;;;19.60;85.10;;;;;;10458381;28;20444;-74
2022/01/02 23:04:41;;;;;;;0.95;0.30;;;19.30;85.60;;;;;;10458553;28;20056;-74
2022/01/02 23:09:42;;;;;;;1.42;0.50;;;19.00;86.00;;;;;;10459021;28;20045;-75
2022/01/02 23:14:44;;;;;;;1.73;0.52;;;18.80;86.50;;;;;;10458148;28;20067;-74
2022/01/02 23:19:46;;;;;;;1.90;0.50;;;18.50;86.80;;;;;;10458688;28;20044;-74
2022/01/02 23:24:48;;;;;;;2.40;0.60;;;18.30;87.10;;;;;;10456999;28;20041;-75
2022/01/02 23:29:49;;;;;;;1.30;0.40;;;18.10;87.30;;;;;;10450408;28;20048;-74
2022/01/02 23:34:51;;;;;;;0.60;0.35;;;17.90;87.50;;;;;;10457881;28;20064;-73
2022/01/02 23:39:52;;;;;;;1.10;0.55;;;17.80;88.30;;;;;;10420327;28;20510;-73
2022/01/02 23:44:54;;;;;;;1.85;0.50;;;17.70;88.00;;;;;;10429753;28;20137;-74
2022/01/02 23:49:55;;;;;;;1.08;0.50;;;17.60;88.20;;;;;;10456989;28;20045;-74
2022/01/02 23:54:58;;;;;;;1.55;0.50;;;17.50;88.30;;;;;;10457358;28;20056;-74
2022/01/02 23:59:59;;;;;;;2.05;0.45;;;17.40;88.40;;;;;;10440823;28;20049;-75
